createdAt,value
2018-11-20T00:04:18.456Z,17.67
2018-11-20T00:07:17.861Z,18.30
2018-11-20T00:10:18.850Z,17.73
2018-11-20T00:16:23.282Z,17.73
2018-11-20T00:19:23.499Z,17.40
2018-11-20T00:25:28.612Z,16.03
2018-11-20T00:31:23.028Z,16.43
2018-11-20T00:34:23.338Z,16.60
2018-11-20T00:37:18.660Z,17.17
2018-11-20T00:40:05.601Z,15.53
2018-11-20T00:43:11.364Z,16.40
2018-11-20T00:46:12.128Z,15.80
2018-11-20T00:49:10.643Z,15.97
2018-11-20T00:52:10.849Z,17.07
2018-11-20T00:55:10.499Z,17.03
2018-11-20T00:58:10.751Z,17.03
2018-11-20T01:01:16.225Z,17.27
2018-11-20T01:04:06.768Z,16.90
2018-11-20T01:07:07.912Z,15.73
2018-11-20T01:10:07.613Z,14.97
2018-11-20T01:12:59.061Z,16.33
2018-11-20T01:15:53.929Z,16.27
2018-11-20T01:18:54.525Z,16.63
2018-11-20T01:21:55.655Z,16.60
2018-11-20T01:28:00.038Z,16.57
2018-11-20T01:34:03.875Z,15.87
2018-11-20T01:40:07.766Z,16.70
2018-11-20T01:42:56.859Z,16.87
2018-11-20T01:45:57.466Z,16.50
2018-11-20T01:51:55.416Z,16.17
2018-11-20T01:54:56.466Z,17.60
2018-11-20T02:01:00.833Z,16.53
2018-11-20T02:04:04.150Z,15.23
2018-11-20T02:07:04.357Z,17.30
2018-11-20T02:10:02.320Z,16.73
2018-11-20T02:12:54.090Z,16.20
2018-11-20T02:15:55.454Z,17.27
2018-11-20T02:22:00.448Z,16.03
2018-11-20T02:25:01.475Z,17.50
2018-11-20T02:27:55.932Z,16.67
2018-11-20T02:30:47.352Z,16.47
2018-11-20T02:33:52.846Z,16.73
2018-11-20T02:36:47.910Z,17.10
2018-11-20T02:39:48.670Z,17.93
2018-11-20T02:42:51.745Z,15.17
2018-11-20T02:45:52.751Z,16.83
2018-11-20T02:51:57.397Z,16.37
2018-11-20T02:54:54.008Z,17.33
2018-11-20T02:57:53.786Z,17.33
2018-11-20T03:00:54.010Z,16.83
2018-11-20T03:03:53.484Z,17.43
2018-11-20T03:06:51.655Z,16.63
2018-11-20T03:09:52.034Z,17.13
2018-11-20T03:15:55.977Z,16.03
2018-11-20T03:18:58.640Z,16.87
2018-11-20T03:21:58.733Z,17.00
2018-11-20T03:28:08.560Z,16.07
2018-11-20T03:30:55.602Z,17.20
2018-11-20T03:36:59.531Z,16.27
2018-11-20T03:43:04.091Z,17.27
2018-11-20T03:46:07.058Z,17.43
2018-11-20T03:49:07.376Z,16.73
2018-11-20T03:52:08.051Z,16.63
2018-11-20T03:58:12.064Z,18.07
2018-11-20T04:01:12.560Z,17.20
2018-11-20T04:07:16.733Z,17.63
2018-11-20T04:10:08.719Z,17.77
2018-11-20T04:13:09.507Z,17.10
2018-11-20T04:16:00.773Z,18.03
2018-11-20T04:19:03.575Z,16.90
2018-11-20T04:22:06.305Z,18.53
2018-11-20T04:28:11.631Z,18.27
2018-11-20T04:31:03.576Z,17.80
2018-11-20T04:34:03.705Z,18.27
2018-11-20T04:37:03.807Z,18.20
2018-11-20T04:39:53.150Z,18.53
2018-11-20T04:42:53.406Z,17.63
2018-11-20T04:48:58.171Z,17.43
2018-11-20T04:52:01.243Z,17.17
2018-11-20T04:55:04.242Z,18.90
2018-11-20T04:58:05.247Z,18.33
2018-11-20T05:04:09.494Z,17.87
2018-11-20T05:06:54.077Z,17.30
2018-11-20T05:12:56.636Z,17.50
2018-11-20T05:19:01.365Z,16.57
2018-11-20T05:22:02.526Z,17.90
2018-11-20T05:28:06.891Z,17.10
2018-11-20T05:31:05.380Z,16.90
2018-11-20T05:34:11.063Z,17.30
2018-11-20T05:40:16.677Z,17.20
2018-11-20T05:43:16.954Z,17.90
2018-11-20T05:49:21.353Z,15.77
2018-11-20T05:52:12.754Z,16.87
2018-11-20T05:55:01.030Z,16.37
2018-11-20T05:58:08.677Z,15.97
2018-11-20T06:01:15.819Z,17.40
2018-11-20T06:04:16.843Z,15.90
2018-11-20T06:07:17.602Z,15.33
2018-11-20T06:10:17.353Z,17.00
2018-11-20T06:13:18.244Z,16.47
2018-11-20T06:19:22.275Z,15.93
2018-11-20T06:22:22.594Z,17.10
2018-11-20T06:28:27.472Z,15.20
2018-11-20T06:31:27.488Z,15.40
2018-11-20T06:34:15.885Z,15.87
2018-11-20T06:37:16.406Z,15.57
2018-11-20T06:43:20.919Z,14.97
2018-11-20T06:46:08.369Z,14.83
2018-11-20T06:49:08.842Z,14.60
2018-11-20T06:52:08.666Z,14.30
2018-11-20T06:55:09.481Z,13.80
2018-11-20T06:58:03.403Z,13.73
2018-11-20T07:01:04.290Z,15.13
2018-11-20T07:04:05.493Z,14.23
2018-11-20T07:10:07.294Z,12.00
2018-11-20T07:13:07.438Z,12.30
2018-11-20T07:16:07.857Z,12.70
2018-11-20T07:22:12.762Z,12.37
2018-11-20T07:25:13.247Z,12.13
2018-11-20T07:28:10.059Z,12.20
2018-11-20T07:31:11.068Z,11.63
2018-11-20T07:37:01.557Z,12.83
2018-11-20T07:40:03.784Z,13.27
2018-11-20T07:46:06.629Z,11.77
2018-11-20T07:49:11.830Z,10.97
2018-11-20T07:52:12.500Z,12.50
2018-11-20T07:55:09.938Z,11.70
2018-11-20T07:58:12.456Z,12.07
2018-11-20T08:01:15.318Z,11.63
2018-11-20T08:04:08.325Z,11.67
2018-11-20T08:07:11.437Z,11.10
2018-11-20T08:13:10.778Z,12.77
2018-11-20T08:16:11.044Z,12.00
2018-11-20T08:19:03.920Z,12.00
2018-11-20T08:21:56.989Z,12.67
2018-11-20T08:24:57.214Z,11.57
2018-11-20T08:27:58.281Z,12.27
2018-11-20T08:31:00.592Z,12.03
2018-11-20T08:34:00.782Z,13.03
2018-11-20T08:37:00.478Z,13.10
2018-11-20T08:40:01.374Z,12.37
2018-11-20T08:42:58.357Z,12.67
2018-11-20T08:45:59.570Z,12.67
2018-11-20T08:49:01.878Z,14.30
2018-11-20T08:52:02.241Z,13.87
2018-11-20T08:55:02.657Z,13.67
2018-11-20T08:58:08.101Z,15.33
2018-11-20T09:01:09.169Z,15.13
2018-11-20T09:07:13.987Z,15.37
2018-11-20T09:10:10.796Z,15.57
2018-11-20T09:13:11.578Z,16.40
2018-11-20T09:16:12.659Z,15.77
2018-11-20T09:22:16.794Z,16.70
2018-11-20T09:25:18.285Z,16.03
2018-11-20T09:28:18.925Z,16.03
2018-11-20T09:31:22.113Z,18.20
2018-11-20T09:37:27.015Z,15.30
2018-11-20T09:40:33.296Z,17.63
2018-11-20T09:43:34.425Z,15.40
2018-11-20T09:46:36.928Z,15.00
2018-11-20T09:52:41.599Z,13.17
2018-11-20T09:58:45.753Z,12.77
2018-11-20T10:01:35.683Z,12.60
2018-11-20T10:04:26.819Z,11.50
2018-11-20T10:07:27.483Z,12.30
2018-11-20T10:13:30.932Z,11.43
2018-11-20T10:16:32.162Z,12.03
2018-11-20T10:19:37.984Z,10.10
2018-11-20T10:22:39.012Z,11.23
2018-11-20T10:28:43.314Z,12.30
2018-11-20T10:31:44.091Z,11.27
2018-11-20T10:37:47.668Z,9.07
2018-11-20T10:43:52.485Z,10.63
2018-11-20T10:46:55.059Z,10.37
2018-11-20T10:49:43.828Z,9.07
2018-11-20T10:52:51.037Z,9.90
2018-11-20T10:58:57.857Z,8.83
2018-11-20T11:01:58.107Z,8.30
2018-11-20T11:08:02.844Z,9.20
2018-11-20T11:11:08.483Z,8.03
2018-11-20T11:14:08.945Z,8.07
2018-11-20T11:20:14.194Z,9.07
2018-11-20T11:23:06.411Z,8.47
2018-11-20T11:29:11.531Z,9.00
2018-11-20T11:32:10.288Z,9.27
2018-11-20T11:35:10.614Z,8.90
2018-11-20T11:38:10.835Z,9.50
2018-11-20T11:41:13.288Z,9.60
2018-11-20T11:44:03.622Z,8.57
2018-11-20T11:50:10.315Z,8.37
2018-11-20T11:53:13.110Z,8.93
2018-11-20T11:56:15.995Z,8.70
2018-11-20T11:59:15.537Z,8.40
2018-11-20T12:05:12.714Z,8.47
2018-11-20T12:08:08.374Z,7.93
2018-11-20T12:11:09.445Z,8.63
2018-11-20T12:14:01.510Z,8.37
2018-11-20T12:20:05.634Z,8.47
2018-11-20T12:23:10.984Z,7.70
2018-11-20T12:26:11.963Z,8.17
2018-11-20T12:29:14.836Z,7.60
2018-11-20T12:32:13.291Z,7.83
2018-11-20T12:35:19.468Z,7.27
2018-11-20T12:38:06.253Z,7.27
2018-11-20T12:41:09.716Z,7.17
2018-11-20T12:44:09.706Z,7.43
2018-11-20T12:47:09.369Z,8.37
2018-11-20T12:50:10.639Z,7.20
2018-11-20T12:53:07.918Z,7.40
2018-11-20T12:55:49.051Z,7.00
2018-11-20T13:01:42.207Z,8.37
2018-11-20T13:04:43.603Z,9.10
2018-11-20T13:10:42.716Z,9.83
2018-11-20T13:13:40.835Z,9.80
2018-11-20T13:16:41.369Z,10.33
2018-11-20T13:19:42.621Z,9.93
2018-11-20T13:25:51.743Z,9.80
2018-11-20T13:31:50.420Z,10.37
2018-11-20T13:34:52.713Z,11.43
2018-11-20T13:37:51.906Z,10.13
2018-11-20T13:40:51.958Z,11.00
2018-11-20T13:46:59.142Z,10.57
2018-11-20T13:49:53.699Z,11.60
2018-11-20T13:52:53.612Z,11.53
2018-11-20T13:55:54.860Z,10.63
2018-11-20T13:59:01.062Z,11.47
2018-11-20T14:02:01.003Z,11.27
2018-11-20T14:05:06.443Z,11.07
2018-11-20T14:11:06.946Z,11.20
2018-11-20T14:17:10.581Z,10.50
2018-11-20T14:20:11.842Z,10.43
2018-11-20T14:23:12.208Z,9.93
2018-11-20T14:26:12.525Z,10.07
2018-11-20T14:29:13.695Z,10.60
2018-11-20T14:32:04.227Z,10.80
2018-11-20T14:35:10.143Z,10.70
2018-11-20T14:41:04.596Z,9.57
2018-11-20T14:47:09.121Z,10.50
2018-11-20T14:50:11.983Z,10.53
2018-11-20T14:55:56.519Z,10.27
2018-11-20T15:02:00.088Z,9.93
2018-11-20T15:05:01.558Z,10.60
2018-11-20T15:07:59.356Z,10.67
2018-11-20T15:11:00.908Z,10.67
2018-11-20T15:13:58.747Z,10.50
2018-11-20T15:17:01.460Z,11.03
2018-11-20T15:20:02.115Z,10.40
2018-11-20T15:26:07.252Z,11.13
2018-11-20T15:32:11.369Z,10.60
2018-11-20T15:35:12.513Z,9.67
2018-11-20T15:38:04.358Z,10.50
2018-11-20T15:41:05.018Z,9.80
2018-11-20T15:44:04.954Z,9.83
2018-11-20T15:47:05.678Z,10.03
2018-11-20T15:50:08.608Z,10.07
2018-11-20T15:56:12.103Z,10.47
2018-11-20T16:02:22.487Z,9.73
2018-11-20T16:05:23.763Z,10.37
2018-11-20T16:08:15.908Z,11.27
2018-11-20T16:11:18.846Z,10.60
2018-11-20T16:17:17.357Z,9.93
2018-11-20T16:20:04.932Z,10.67
2018-11-20T16:23:29.336Z,10.80
2018-11-20T16:26:36.512Z,11.33
2018-11-20T16:29:33.322Z,10.23
2018-11-20T16:32:40.189Z,11.50
2018-11-20T16:35:40.404Z,11.77
2018-11-20T16:38:37.006Z,11.20
2018-11-20T16:41:42.209Z,11.03
2018-11-20T16:47:44.274Z,11.03
2018-11-20T16:50:45.436Z,10.57
2018-11-20T16:56:50.312Z,12.63
2018-11-20T16:59:50.038Z,12.00
2018-11-20T17:02:52.879Z,13.03
2018-11-20T17:05:55.144Z,11.73
2018-11-20T17:08:42.602Z,12.30
2018-11-20T17:11:49.425Z,11.67
2018-11-20T17:14:55.500Z,11.80
2018-11-20T17:17:56.555Z,12.57
2018-11-20T17:29:48.168Z,12.87
2018-11-20T17:32:49.625Z,11.87
2018-11-20T17:35:41.154Z,11.87
2018-11-20T17:38:41.417Z,12.93
2018-11-20T17:41:41.653Z,13.13
2018-11-20T17:47:39.005Z,11.77
2018-11-20T17:50:39.335Z,13.90
2018-11-20T17:53:31.766Z,12.97
2018-11-20T17:56:32.085Z,13.47
2018-11-20T17:59:21.249Z,13.37
2018-11-20T18:02:15.793Z,13.43
2018-11-20T18:08:20.723Z,26.90
2018-11-20T18:14:26.674Z,12.23
2018-11-20T18:17:29.678Z,12.97
2018-11-20T18:23:33.106Z,14.73
2018-11-20T18:29:38.067Z,14.83
2018-11-20T18:32:40.825Z,14.17
2018-11-20T18:38:44.605Z,13.67
2018-11-20T18:44:31.122Z,14.87
2018-11-20T18:47:37.349Z,15.10
2018-11-20T18:50:29.092Z,13.40
2018-11-20T18:53:30.273Z,12.90
2018-11-20T18:58:54.667Z,13.30
2018-11-20T19:01:57.018Z,14.10
2018-11-20T19:04:48.443Z,13.67
2018-11-20T19:07:51.272Z,15.23
2018-11-20T19:10:44.781Z,13.93
2018-11-20T19:13:45.881Z,13.57
2018-11-20T19:19:49.707Z,14.20
2018-11-20T19:22:52.838Z,15.57
2018-11-20T19:28:50.984Z,13.57
2018-11-20T19:31:53.080Z,13.17
2018-11-20T19:34:49.369Z,13.77
2018-11-20T19:37:50.378Z,14.53
2018-11-20T19:43:55.460Z,13.50
2018-11-20T19:53:01.071Z,13.13
2018-11-20T19:56:00.547Z,12.37
2018-11-20T19:59:06.563Z,14.47
2018-11-20T20:04:38.109Z,13.87
2018-11-20T20:07:44.912Z,11.93
2018-11-20T20:10:47.195Z,12.93
2018-11-20T20:13:50.342Z,13.53
2018-11-20T20:22:08.141Z,13.73
2018-11-20T20:25:15.231Z,12.43
2018-11-20T20:28:02.644Z,13.03
2018-11-20T20:31:09.724Z,13.70
2018-11-20T20:34:02.027Z,12.80
2018-11-20T20:40:06.385Z,12.73
2018-11-20T20:46:11.063Z,13.53
2018-11-20T20:49:16.835Z,12.57
2018-11-20T20:52:09.623Z,13.30
2018-11-20T20:54:50.326Z,11.70
2018-11-20T21:00:55.101Z,12.93
2018-11-20T21:03:50.991Z,14.57
2018-11-20T21:06:57.498Z,14.00
2018-11-20T21:09:44.969Z,13.47
2018-11-20T21:12:51.788Z,13.30
2018-11-20T21:15:55.214Z,12.83
2018-11-20T21:21:35.548Z,12.83
2018-11-20T21:24:35.294Z,11.87
2018-11-20T21:27:31.667Z,11.73
2018-11-20T21:30:32.713Z,12.43
2018-11-20T21:33:32.685Z,12.57
2018-11-20T21:36:32.146Z,11.83
2018-11-20T21:39:33.187Z,12.33
2018-11-20T21:42:33.113Z,11.80
2018-11-20T21:45:35.710Z,13.40
2018-11-20T21:48:36.752Z,12.70
2018-11-20T21:51:24.259Z,11.70
2018-11-20T21:54:31.071Z,13.80
2018-11-20T22:00:37.790Z,11.80
2018-11-20T22:03:37.721Z,12.00
2018-11-20T22:06:38.916Z,12.80
2018-11-20T22:09:45.046Z,12.90
2018-11-20T22:15:49.593Z,11.30
2018-11-20T22:21:53.242Z,13.60
2018-11-20T22:24:54.409Z,13.30
2018-11-20T22:30:54.779Z,12.00
2018-11-20T22:33:55.076Z,12.23
2018-11-20T22:36:54.671Z,12.80
2018-11-20T22:39:56.000Z,12.77
2018-11-20T22:46:00.741Z,11.87
2018-11-20T22:48:49.794Z,12.20
2018-11-20T22:51:52.837Z,12.37
2018-11-20T22:54:53.969Z,13.17
2018-11-20T23:00:58.793Z,13.37
2018-11-20T23:07:03.500Z,12.73
2018-11-20T23:09:44.614Z,12.03
2018-11-20T23:12:25.125Z,13.40
2018-11-20T23:15:06.006Z,12.67
2018-11-20T23:17:47.141Z,14.03
2018-11-20T23:20:27.443Z,13.47
2018-11-20T23:23:07.869Z,14.67
2018-11-20T23:25:48.775Z,13.20
2018-11-20T23:28:29.672Z,12.73
2018-11-20T23:31:10.884Z,15.10
2018-11-20T23:33:52.022Z,13.30
2018-11-20T23:36:32.812Z,13.60
2018-11-20T23:39:13.798Z,13.57
2018-11-20T23:41:42.835Z,13.77
2018-11-20T23:44:31.041Z,13.53
2018-11-20T23:47:11.352Z,14.77
2018-11-20T23:49:52.853Z,12.27
2018-11-20T23:52:33.560Z,13.10
2018-11-20T23:55:15.183Z,13.47
2018-11-20T23:57:55.959Z,12.87
